sensor_id;sensor_type;location;lat;lon;timestamp;pressure;altitude;pressure_sealevel;temperature;humidity
8047;BME280;67150;42.516;23.358;2023-02-03T00:00:06;88395.25;;;3.17;58.25
8047;BME280;67150;42.516;23.358;2023-02-03T00:02:52;88384.50;;;3.16;58.34
8047;BME280;67150;42.516;23.358;2023-02-03T00:05:39;88387.13;;;3.13;58.30
8047;BME280;67150;42.516;23.358;2023-02-03T00:08:27;88386.22;;;3.14;58.77
8047;BME280;67150;42.516;23.358;2023-02-03T00:11:13;88382.88;;;3.15;58.42
8047;BME280;67150;42.516;23.358;2023-02-03T00:13:59;88388.72;;;3.14;58.43
8047;BME280;67150;42.516;23.358;2023-02-03T00:16:44;88371.28;;;3.14;58.47
8047;BME280;67150;42.516;23.358;2023-02-03T00:19:30;88374.59;;;3.15;58.54
8047;BME280;67150;42.516;23.358;2023-02-03T00:22:16;88374.69;;;3.13;58.76
8047;BME280;67150;42.516;23.358;2023-02-03T00:25:04;88366.25;;;3.16;58.71
8047;BME280;67150;42.516;23.358;2023-02-03T00:27:50;88372.19;;;3.13;58.59
8047;BME280;67150;42.516;23.358;2023-02-03T00:30:36;88372.25;;;3.12;58.86
8047;BME280;67150;42.516;23.358;2023-02-03T00:33:22;88365.59;;;3.12;58.68
8047;BME280;67150;42.516;23.358;2023-02-03T00:36:09;88368.88;;;3.13;58.58
8047;BME280;67150;42.516;23.358;2023-02-03T00:38:55;88405.56;;;3.09;58.65
8047;BME280;67150;42.516;23.358;2023-02-03T00:41:43;88389.59;;;3.13;58.68
8047;BME280;67150;42.516;23.358;2023-02-03T00:44:29;88398.03;;;3.11;58.80
8047;BME280;67150;42.516;23.358;2023-02-03T00:47:14;88392.38;;;3.07;58.90
8047;BME280;67150;42.516;23.358;2023-02-03T00:50:00;88383.31;;;3.06;59.04
8047;BME280;67150;42.516;23.358;2023-02-03T00:52:47;88390.72;;;3.08;58.93
8047;BME280;67150;42.516;23.358;2023-02-03T00:55:33;88386.38;;;3.11;58.71
8047;BME280;67150;42.516;23.358;2023-02-03T00:58:20;88387.56;;;3.04;59.05
8047;BME280;67150;42.516;23.358;2023-02-03T01:01:07;88388.41;;;3.03;58.98
8047;BME280;67150;42.516;23.358;2023-02-03T01:03:54;88391.66;;;3.05;58.83
8047;BME280;67150;42.516;23.358;2023-02-03T01:06:40;88379.84;;;3.09;58.62
8047;BME280;67150;42.516;23.358;2023-02-03T01:09:26;88386.69;;;3.05;58.73
8047;BME280;67150;42.516;23.358;2023-02-03T01:12:12;88388.28;;;3.06;58.81
8047;BME280;67150;42.516;23.358;2023-02-03T01:14:59;88398.22;;;3.06;59.01
8047;BME280;67150;42.516;23.358;2023-02-03T01:17:45;88399.84;;;3.07;59.03
8047;BME280;67150;42.516;23.358;2023-02-03T01:20:30;88403.22;;;3.06;59.30
8047;BME280;67150;42.516;23.358;2023-02-03T01:23:17;88404.16;;;3.04;59.19
8047;BME280;67150;42.516;23.358;2023-02-03T01:26:04;88407.50;;;3.03;59.22
8047;BME280;67150;42.516;23.358;2023-02-03T01:28:51;88403.44;;;3.02;59.33
8047;BME280;67150;42.516;23.358;2023-02-03T01:31:40;88406.88;;;2.99;59.07
8047;BME280;67150;42.516;23.358;2023-02-03T01:34:26;88406.75;;;3.02;58.99
8047;BME280;67150;42.516;23.358;2023-02-03T01:37:12;88401.63;;;3.05;59.15
8047;BME280;67150;42.516;23.358;2023-02-03T01:40:00;88405.69;;;3.06;58.81
8047;BME280;67150;42.516;23.358;2023-02-03T01:42:46;88415.78;;;3.03;59.00
8047;BME280;67150;42.516;23.358;2023-02-03T01:45:31;88409.28;;;3.01;59.33
8047;BME280;67150;42.516;23.358;2023-02-03T01:48:18;88421.81;;;2.99;59.11
8047;BME280;67150;42.516;23.358;2023-02-03T01:51:04;88421.81;;;2.99;59.12
8047;BME280;67150;42.516;23.358;2023-02-03T01:53:51;88416.03;;;2.99;59.00
8047;BME280;67150;42.516;23.358;2023-02-03T01:56:39;88419.38;;;2.98;59.11
8047;BME280;67150;42.516;23.358;2023-02-03T01:59:27;88416.69;;;3.02;58.85
8047;BME280;67150;42.516;23.358;2023-02-03T02:02:14;88409.38;;;2.99;58.82
8047;BME280;67150;42.516;23.358;2023-02-03T02:05:05;88410.91;;;3.02;58.88
8047;BME280;67150;42.516;23.358;2023-02-03T02:07:51;88433.34;;;3.00;58.99
8047;BME280;67150;42.516;23.358;2023-02-03T02:10:37;88417.75;;;2.97;58.95
8047;BME280;67150;42.516;23.358;2023-02-03T02:13:23;88407.16;;;2.93;59.12
8047;BME280;67150;42.516;23.358;2023-02-03T02:16:15;88416.84;;;2.99;59.02
8047;BME280;67150;42.516;23.358;2023-02-03T02:19:19;88433.44;;;2.99;58.86
8047;BME280;67150;42.516;23.358;2023-02-03T02:22:17;88441.44;;;3.05;58.72
8047;BME280;67150;42.516;23.358;2023-02-03T02:28:51;88433.50;;;2.97;59.04
8047;BME280;67150;42.516;23.358;2023-02-03T02:31:57;88435.97;;;2.97;59.12
8047;BME280;67150;42.516;23.358;2023-02-03T02:34:51;88441.19;;;2.93;59.33
8047;BME280;67150;42.516;23.358;2023-02-03T02:37:47;88452.94;;;2.89;59.18
8047;BME280;67150;42.516;23.358;2023-02-03T02:40:45;88453.69;;;2.91;58.94
8047;BME280;67150;42.516;23.358;2023-02-03T02:43:41;88468.75;;;2.88;58.86
8047;BME280;67150;42.516;23.358;2023-02-03T02:46:31;88467.16;;;2.87;59.09
8047;BME280;67150;42.516;23.358;2023-02-03T02:49:24;88460.28;;;2.92;58.95
8047;BME280;67150;42.516;23.358;2023-02-03T02:52:14;88448.25;;;2.83;58.80
8047;BME280;67150;42.516;23.358;2023-02-03T02:55:06;88449.78;;;2.86;58.87
8047;BME280;67150;42.516;23.358;2023-02-03T02:57:57;88456.66;;;2.80;58.93
8047;BME280;67150;42.516;23.358;2023-02-03T03:00:45;88444.13;;;2.82;59.03
8047;BME280;67150;42.516;23.358;2023-02-03T03:03:31;88469.16;;;2.79;59.08
8047;BME280;67150;42.516;23.358;2023-02-03T03:06:20;88467.44;;;2.81;58.87
8047;BME280;67150;42.516;23.358;2023-02-03T03:09:11;88436.09;;;2.77;58.57
8047;BME280;67150;42.516;23.358;2023-02-03T03:12:02;88447.94;;;2.72;58.79
8047;BME280;67150;42.516;23.358;2023-02-03T03:14:54;88456.72;;;2.79;58.30
8047;BME280;67150;42.516;23.358;2023-02-03T03:17:43;88437.84;;;2.75;58.44
8047;BME280;67150;42.516;23.358;2023-02-03T03:20:30;88435.22;;;2.78;58.40
8047;BME280;67150;42.516;23.358;2023-02-03T03:23:25;88427.81;;;2.76;58.62
8047;BME280;67150;42.516;23.358;2023-02-03T03:26:14;88447.66;;;2.78;58.77
8047;BME280;67150;42.516;23.358;2023-02-03T03:29:06;88459.19;;;2.79;58.32
8047;BME280;67150;42.516;23.358;2023-02-03T03:31:55;88448.25;;;2.83;58.24
8047;BME280;67150;42.516;23.358;2023-02-03T03:34:44;88450.16;;;2.78;58.33
8047;BME280;67150;42.516;23.358;2023-02-03T03:37:34;88443.78;;;2.72;58.59
8047;BME280;67150;42.516;23.358;2023-02-03T03:40:26;88451.81;;;2.77;58.42
8047;BME280;67150;42.516;23.358;2023-02-03T03:43:16;88440.94;;;2.80;58.59
8047;BME280;67150;42.516;23.358;2023-02-03T03:46:08;88451.88;;;2.76;58.73
8047;BME280;67150;42.516;23.358;2023-02-03T03:48:59;88460.25;;;2.75;58.57
8047;BME280;67150;42.516;23.358;2023-02-03T03:51:48;88459.50;;;2.73;58.16
8047;BME280;67150;42.516;23.358;2023-02-03T03:54:37;88467.56;;;2.78;57.89
8047;BME280;67150;42.516;23.358;2023-02-03T03:57:30;88469.47;;;2.73;58.26
8047;BME280;67150;42.516;23.358;2023-02-03T04:00:20;88466.03;;;2.75;58.28
8047;BME280;67150;42.516;23.358;2023-02-03T04:03:13;88461.03;;;2.75;58.58
8047;BME280;67150;42.516;23.358;2023-02-03T04:06:00;88475.75;;;2.80;58.60
8047;BME280;67150;42.516;23.358;2023-02-03T04:08:46;88471.59;;;2.80;58.19
8047;BME280;67150;42.516;23.358;2023-02-03T04:11:31;88469.28;;;2.76;58.62
8047;BME280;67150;42.516;23.358;2023-02-03T04:14:38;88485.94;;;2.75;58.45
8047;BME280;67150;42.516;23.358;2023-02-03T04:17:25;88479.53;;;2.70;58.52
8047;BME280;67150;42.516;23.358;2023-02-03T04:20:12;88463.66;;;2.72;58.64
8047;BME280;67150;42.516;23.358;2023-02-03T04:22:58;88480.28;;;2.72;58.78
8047;BME280;67150;42.516;23.358;2023-02-03T04:25:44;88499.13;;;2.76;58.81
8047;BME280;67150;42.516;23.358;2023-02-03T04:28:29;88489.28;;;2.74;58.87
8047;BME280;67150;42.516;23.358;2023-02-03T04:31:17;88476.03;;;2.74;58.71
8047;BME280;67150;42.516;23.358;2023-02-03T04:34:02;88488.47;;;2.74;58.67
8047;BME280;67150;42.516;23.358;2023-02-03T04:36:48;88489.34;;;2.73;58.59
8047;BME280;67150;42.516;23.358;2023-02-03T04:39:34;88483.44;;;2.75;58.82
8047;BME280;67150;42.516;23.358;2023-02-03T04:42:20;88485.97;;;2.74;58.88
8047;BME280;67150;42.516;23.358;2023-02-03T04:45:08;88480.94;;;2.75;58.79
8047;BME280;67150;42.516;23.358;2023-02-03T04:47:56;88489.19;;;2.76;58.33
8047;BME280;67150;42.516;23.358;2023-02-03T04:50:41;88497.53;;;2.75;58.58
8047;BME280;67150;42.516;23.358;2023-02-03T04:53:27;88502.16;;;2.82;58.60
8047;BME280;67150;42.516;23.358;2023-02-03T04:56:14;88519.22;;;2.73;58.76
8047;BME280;67150;42.516;23.358;2023-02-03T04:58:59;88527.44;;;2.73;58.85
8047;BME280;67150;42.516;23.358;2023-02-03T05:01:45;88527.44;;;2.73;58.93
8047;BME280;67150;42.516;23.358;2023-02-03T05:04:33;88532.28;;;2.76;58.28
8047;BME280;67150;42.516;23.358;2023-02-03T05:07:18;88536.66;;;2.71;58.61
8047;BME280;67150;42.516;23.358;2023-02-03T05:10:04;88530.84;;;2.72;58.71
8047;BME280;67150;42.516;23.358;2023-02-03T05:12:51;88534.84;;;2.75;58.57
8047;BME280;67150;42.516;23.358;2023-02-03T05:15:36;88544.06;;;2.73;58.69
8047;BME280;67150;42.516;23.358;2023-02-03T05:18:22;88526.94;;;2.67;58.93
8047;BME280;67150;42.516;23.358;2023-02-03T05:21:10;88544.22;;;2.70;58.89
8047;BME280;67150;42.516;23.358;2023-02-03T05:23:55;88539.25;;;2.70;58.88
8047;BME280;67150;42.516;23.358;2023-02-03T05:26:44;88537.75;;;2.66;58.90
8047;BME280;67150;42.516;23.358;2023-02-03T05:29:29;88541.84;;;2.67;59.23
8047;BME280;67150;42.516;23.358;2023-02-03T05:32:15;88553.53;;;2.65;59.13
8047;BME280;67150;42.516;23.358;2023-02-03T05:35:01;88543.31;;;2.71;59.26
8047;BME280;67150;42.516;23.358;2023-02-03T05:37:48;88558.09;;;2.74;58.97
8047;BME280;67150;42.516;23.358;2023-02-03T05:40:34;88546.88;;;2.65;59.12
8047;BME280;67150;42.516;23.358;2023-02-03T05:43:38;88564.09;;;2.70;58.99
8047;BME280;67150;42.516;23.358;2023-02-03T05:46:24;88559.13;;;2.70;59.01
8047;BME280;67150;42.516;23.358;2023-02-03T05:49:09;88538.59;;;2.65;59.18
8047;BME280;67150;42.516;23.358;2023-02-03T05:51:55;88545.06;;;2.69;58.89
8047;BME280;67150;42.516;23.358;2023-02-03T05:54:42;88536.19;;;2.63;58.95
8047;BME280;67150;42.516;23.358;2023-02-03T05:57:28;88550.19;;;2.66;58.86
8047;BME280;67150;42.516;23.358;2023-02-03T06:00:14;88533.16;;;2.57;58.87
8047;BME280;67150;42.516;23.358;2023-02-03T06:03:01;88543.84;;;2.59;58.86
8047;BME280;67150;42.516;23.358;2023-02-03T06:05:47;88537.88;;;2.63;58.77
8047;BME280;67150;42.516;23.358;2023-02-03T06:08:33;88541.31;;;2.60;58.85
8047;BME280;67150;42.516;23.358;2023-02-03T06:11:21;88540.63;;;2.57;59.13
8047;BME280;67150;42.516;23.358;2023-02-03T06:14:08;88553.06;;;2.57;59.02
8047;BME280;67150;42.516;23.358;2023-02-03T06:16:54;88546.97;;;2.64;58.66
8047;BME280;67150;42.516;23.358;2023-02-03T06:19:39;88546.19;;;2.62;59.08
8047;BME280;67150;42.516;23.358;2023-02-03T06:22:25;88542.13;;;2.61;59.02
8047;BME280;67150;42.516;23.358;2023-02-03T06:25:11;88547.94;;;2.60;58.95
8047;BME280;67150;42.516;23.358;2023-02-03T06:27:59;88550.22;;;2.64;58.81
8047;BME280;67150;42.516;23.358;2023-02-03T06:30:47;88542.72;;;2.66;58.97
8047;BME280;67150;42.516;23.358;2023-02-03T06:33:34;88548.56;;;2.65;59.08
8047;BME280;67150;42.516;23.358;2023-02-03T06:36:19;88571.69;;;2.67;58.57
8047;BME280;67150;42.516;23.358;2023-02-03T06:39:05;88565.44;;;2.77;58.79
8047;BME280;67150;42.516;23.358;2023-02-03T06:41:51;88559.66;;;2.76;58.50
8047;BME280;67150;42.516;23.358;2023-02-03T06:44:38;88566.47;;;2.73;58.73
8047;BME280;67150;42.516;23.358;2023-02-03T06:47:24;88567.06;;;2.78;58.09
8047;BME280;67150;42.516;23.358;2023-02-03T06:50:11;88570.41;;;2.77;58.04
8047;BME280;67150;42.516;23.358;2023-02-03T06:52:57;88573.38;;;2.85;58.02
8047;BME280;67150;42.516;23.358;2023-02-03T06:55:43;88564.22;;;2.86;57.93
8047;BME280;67150;42.516;23.358;2023-02-03T06:58:30;88582.16;;;2.73;58.27
8047;BME280;67150;42.516;23.358;2023-02-03T07:01:17;88578.47;;;2.82;57.95
8047;BME280;67150;42.516;23.358;2023-02-03T07:04:06;88579.28;;;2.82;57.74
8047;BME280;67150;42.516;23.358;2023-02-03T07:06:54;88577.50;;;2.86;57.89
8047;BME280;67150;42.516;23.358;2023-02-03T07:09:40;88581.47;;;2.90;57.73
8047;BME280;67150;42.516;23.358;2023-02-03T07:12:26;88566.94;;;2.81;57.97
8047;BME280;67150;42.516;23.358;2023-02-03T07:15:12;88577.00;;;2.78;58.30
8047;BME280;67150;42.516;23.358;2023-02-03T07:17:59;88583.31;;;2.85;58.23
8047;BME280;67150;42.516;23.358;2023-02-03T07:20:45;88575.13;;;2.83;58.64
8047;BME280;67150;42.516;23.358;2023-02-03T07:23:31;88579.97;;;2.86;58.39
8047;BME280;67150;42.516;23.358;2023-02-03T07:26:17;88590.88;;;2.83;58.61
8047;BME280;67150;42.516;23.358;2023-02-03T07:29:06;88594.09;;;2.86;58.58
8047;BME280;67150;42.516;23.358;2023-02-03T07:31:52;88600.81;;;2.83;58.51
8047;BME280;67150;42.516;23.358;2023-02-03T07:34:40;88605.78;;;2.83;58.64
8047;BME280;67150;42.516;23.358;2023-02-03T07:37:26;88609.00;;;2.86;58.41
8047;BME280;67150;42.516;23.358;2023-02-03T07:40:13;88607.91;;;2.93;58.20
8047;BME280;67150;42.516;23.358;2023-02-03T07:42:59;88607.69;;;2.97;57.98
8047;BME280;67150;42.516;23.358;2023-02-03T07:45:45;88611.06;;;2.96;58.21
8047;BME280;67150;42.516;23.358;2023-02-03T07:48:31;88609.22;;;3.00;58.08
8047;BME280;67150;42.516;23.358;2023-02-03T07:51:18;88611.78;;;2.98;58.26
8047;BME280;67150;42.516;23.358;2023-02-03T07:54:04;88612.06;;;2.92;58.16
8047;BME280;67150;42.516;23.358;2023-02-03T07:56:49;88623.63;;;2.93;58.12
8047;BME280;67150;42.516;23.358;2023-02-03T07:59:35;88620.13;;;2.97;58.09
8047;BME280;67150;42.516;23.358;2023-02-03T08:02:21;88597.16;;;3.11;57.80
8047;BME280;67150;42.516;23.358;2023-02-03T08:05:07;88613.41;;;2.99;57.76
8047;BME280;67150;42.516;23.358;2023-02-03T08:07:54;88596.59;;;3.04;56.88
8047;BME280;67150;42.516;23.358;2023-02-03T08:10:40;88601.91;;;2.97;57.39
8047;BME280;67150;42.516;23.358;2023-02-03T08:13:26;88604.47;;;3.14;57.21
8047;BME280;67150;42.516;23.358;2023-02-03T08:16:11;88602.25;;;3.08;57.25
8047;BME280;67150;42.516;23.358;2023-02-03T08:18:58;88608.97;;;3.06;57.51
8047;BME280;67150;42.516;23.358;2023-02-03T08:21:44;88617.50;;;3.00;57.22
8047;BME280;67150;42.516;23.358;2023-02-03T08:24:31;88615.78;;;3.02;57.22
8047;BME280;67150;42.516;23.358;2023-02-03T08:27:18;88613.50;;;3.16;57.31
8047;BME280;67150;42.516;23.358;2023-02-03T08:30:05;88616.84;;;3.15;57.12
8047;BME280;67150;42.516;23.358;2023-02-03T08:32:51;88620.19;;;3.14;57.29
8047;BME280;67150;42.516;23.358;2023-02-03T08:35:37;88621.69;;;3.18;56.88
8047;BME280;67150;42.516;23.358;2023-02-03T08:38:24;88625.72;;;3.21;57.08
8047;BME280;67150;42.516;23.358;2023-02-03T08:41:13;88637.03;;;3.09;57.23
8047;BME280;67150;42.516;23.358;2023-02-03T08:43:59;88628.59;;;3.12;56.99
8047;BME280;67150;42.516;23.358;2023-02-03T08:46:48;88637.56;;;3.16;56.58
8047;BME280;67150;42.516;23.358;2023-02-03T08:49:34;88646.03;;;3.12;56.83
8047;BME280;67150;42.516;23.358;2023-02-03T08:52:22;88643.38;;;3.16;57.14
8047;BME280;67150;42.516;23.358;2023-02-03T08:55:08;88649.16;;;3.17;57.12
8047;BME280;67150;42.516;23.358;2023-02-03T08:57:56;88644.09;;;3.18;57.33
8047;BME280;67150;42.516;23.358;2023-02-03T09:00:44;88648.38;;;3.15;57.17
8047;BME280;67150;42.516;23.358;2023-02-03T09:03:32;88656.94;;;3.09;57.53
8047;BME280;67150;42.516;23.358;2023-02-03T09:06:18;88654.66;;;3.23;57.19
8047;BME280;67150;42.516;23.358;2023-02-03T09:09:06;88641.72;;;3.15;57.48
8047;BME280;67150;42.516;23.358;2023-02-03T09:11:51;88657.69;;;3.30;56.49
8047;BME280;67150;42.516;23.358;2023-02-03T09:14:40;88662.59;;;3.13;57.30
8047;BME280;67150;42.516;23.358;2023-02-03T09:17:25;88665.25;;;3.08;57.93
8047;BME280;67150;42.516;23.358;2023-02-03T09:20:12;88668.38;;;3.13;57.41
8047;BME280;67150;42.516;23.358;2023-02-03T09:22:58;88678.22;;;3.16;57.34
8047;BME280;67150;42.516;23.358;2023-02-03T09:25:44;88677.13;;;3.22;57.22
8047;BME280;67150;42.516;23.358;2023-02-03T09:28:29;88676.44;;;3.18;57.81
8047;BME280;67150;42.516;23.358;2023-02-03T09:31:17;88673.38;;;3.13;57.94
8047;BME280;67150;42.516;23.358;2023-02-03T09:34:03;88677.41;;;3.16;58.00
8047;BME280;67150;42.516;23.358;2023-02-03T09:36:49;88667.38;;;3.17;57.97
8047;BME280;67150;42.516;23.358;2023-02-03T09:39:34;88672.22;;;3.20;58.08
8047;BME280;67150;42.516;23.358;2023-02-03T09:45:29;88672.06;;;3.23;58.15
8047;BME280;67150;42.516;23.358;2023-02-03T09:48:20;88696.44;;;3.35;58.12
8047;BME280;67150;42.516;23.358;2023-02-03T09:51:17;88689.53;;;3.42;58.19
8047;BME280;67150;42.516;23.358;2023-02-03T09:54:14;88688.72;;;3.42;58.01
8047;BME280;67150;42.516;23.358;2023-02-03T09:57:02;88689.53;;;3.42;58.03
8047;BME280;67150;42.516;23.358;2023-02-03T09:59:50;88687.97;;;3.39;58.17
8047;BME280;67150;42.516;23.358;2023-02-03T10:02:49;88694.25;;;3.48;58.01
8047;BME280;67150;42.516;23.358;2023-02-03T10:06:05;88691.41;;;3.56;57.69
8047;BME280;67150;42.516;23.358;2023-02-03T10:09:15;88693.91;;;3.56;57.63
8047;BME280;67150;42.516;23.358;2023-02-03T10:12:38;88684.84;;;3.55;56.99
8047;BME280;67150;42.516;23.358;2023-02-03T10:15:47;88685.22;;;3.64;56.80
8047;BME280;67150;42.516;23.358;2023-02-03T10:18:39;88689.28;;;3.67;57.02
8047;BME280;67150;42.516;23.358;2023-02-03T10:21:35;88689.47;;;3.81;56.74
8047;BME280;67150;42.516;23.358;2023-02-03T10:24:26;88684.66;;;3.76;56.99
8047;BME280;67150;42.516;23.358;2023-02-03T10:27:17;88693.81;;;3.76;57.50
8047;BME280;67150;42.516;23.358;2023-02-03T10:30:19;88707.19;;;3.75;57.80
8047;BME280;67150;42.516;23.358;2023-02-03T10:33:10;88706.91;;;3.81;57.79
8047;BME280;67150;42.516;23.358;2023-02-03T10:36:01;88701.16;;;3.79;57.80
8047;BME280;67150;42.516;23.358;2023-02-03T10:38:59;88686.75;;;3.85;57.80
8047;BME280;67150;42.516;23.358;2023-02-03T10:41:47;88673.97;;;3.93;57.57
8047;BME280;67150;42.516;23.358;2023-02-03T10:44:36;88695.72;;;3.89;57.63
8047;BME280;67150;42.516;23.358;2023-02-03T10:47:26;88695.31;;;3.80;56.64
8047;BME280;67150;42.516;23.358;2023-02-03T10:50:15;88680.81;;;3.88;56.58
8047;BME280;67150;42.516;23.358;2023-02-03T10:53:23;88689.38;;;4.01;56.61
8047;BME280;67150;42.516;23.358;2023-02-03T10:56:12;88689.66;;;3.95;56.15
8047;BME280;67150;42.516;23.358;2023-02-03T10:58:59;88690.59;;;3.92;56.42
8047;BME280;67150;42.516;23.358;2023-02-03T11:01:46;88693.75;;;3.96;56.19
8047;BME280;67150;42.516;23.358;2023-02-03T11:04:33;88683.31;;;3.88;55.81
8047;BME280;67150;42.516;23.358;2023-02-03T11:07:25;88683.44;;;3.85;56.21
8047;BME280;67150;42.516;23.358;2023-02-03T11:10:30;88675.50;;;3.77;55.96
8047;BME280;67150;42.516;23.358;2023-02-03T11:13:21;88679.09;;;3.71;56.30
8047;BME280;67150;42.516;23.358;2023-02-03T11:16:12;88674.66;;;3.78;56.55
8047;BME280;67150;42.516;23.358;2023-02-03T11:19:00;88666.81;;;3.85;56.80
8047;BME280;67150;42.516;23.358;2023-02-03T11:21:48;88663.38;;;3.88;56.97
8047;BME280;67150;42.516;23.358;2023-02-03T11:24:38;88672.25;;;3.93;56.81
8047;BME280;67150;42.516;23.358;2023-02-03T11:27:28;88673.19;;;3.91;57.00
8047;BME280;67150;42.516;23.358;2023-02-03T11:30:21;88675.25;;;3.83;56.68
8047;BME280;67150;42.516;23.358;2023-02-03T11:33:16;88679.69;;;3.76;56.23
8047;BME280;67150;42.516;23.358;2023-02-03T11:36:03;88675.38;;;3.80;56.05
8047;BME280;67150;42.516;23.358;2023-02-03T11:38:49;88672.16;;;3.78;56.64
8047;BME280;67150;42.516;23.358;2023-02-03T11:41:36;88664.59;;;3.79;56.72
8047;BME280;67150;42.516;23.358;2023-02-03T11:44:24;88662.06;;;3.81;56.82
8047;BME280;67150;42.516;23.358;2023-02-03T11:47:14;88653.63;;;3.83;56.71
8047;BME280;67150;42.516;23.358;2023-02-03T11:50:14;88660.28;;;3.83;56.11
8047;BME280;67150;42.516;23.358;2023-02-03T11:53:19;88642.94;;;3.81;55.73
8047;BME280;67150;42.516;23.358;2023-02-03T11:56:26;88649.72;;;3.78;56.33
8047;BME280;67150;42.516;23.358;2023-02-03T12:06:16;88637.59;;;3.70;55.41
8047;BME280;67150;42.516;23.358;2023-02-03T12:09:16;88648.25;;;3.74;55.84
8047;BME280;67150;42.516;23.358;2023-02-03T12:12:32;88638.59;;;3.85;56.37
8047;BME280;67150;42.516;23.358;2023-02-03T12:15:32;88633.41;;;3.89;56.56
8047;BME280;67150;42.516;23.358;2023-02-03T12:18:36;88622.34;;;3.95;56.81
8047;BME280;67150;42.516;23.358;2023-02-03T12:21:38;88619.91;;;3.93;57.28
8047;BME280;67150;42.516;23.358;2023-02-03T12:24:33;88616.63;;;3.93;56.78
8047;BME280;67150;42.516;23.358;2023-02-03T12:27:32;88618.09;;;3.97;57.04
8047;BME280;67150;42.516;23.358;2023-02-03T12:30:23;88617.66;;;4.06;57.18
8047;BME280;67150;42.516;23.358;2023-02-03T12:33:14;88621.34;;;3.99;57.32
8047;BME280;67150;42.516;23.358;2023-02-03T12:36:06;88623.47;;;4.07;56.48
8047;BME280;67150;42.516;23.358;2023-02-03T12:38:58;88613.09;;;3.97;56.57
8047;BME280;67150;42.516;23.358;2023-02-03T12:41:51;88628.34;;;4.08;56.64
8047;BME280;67150;42.516;23.358;2023-02-03T12:44:43;88622.50;;;4.09;56.30
8047;BME280;67150;42.516;23.358;2023-02-03T12:47:36;88619.63;;;4.00;56.09
8047;BME280;67150;42.516;23.358;2023-02-03T12:50:29;88620.53;;;3.99;56.04
8047;BME280;67150;42.516;23.358;2023-02-03T12:53:20;88616.53;;;3.94;55.85
8047;BME280;67150;42.516;23.358;2023-02-03T12:56:12;88617.13;;;4.00;55.88
8047;BME280;67150;42.516;23.358;2023-02-03T12:59:01;88606.53;;;3.96;55.98
8047;BME280;67150;42.516;23.358;2023-02-03T13:01:53;88623.78;;;3.82;56.27
8047;BME280;67150;42.516;23.358;2023-02-03T13:04:44;88611.94;;;3.87;56.35
8047;BME280;67150;42.516;23.358;2023-02-03T13:07:36;88620.66;;;3.95;56.32
8047;BME280;67150;42.516;23.358;2023-02-03T13:10:27;88598.28;;;3.94;56.38
8047;BME280;67150;42.516;23.358;2023-02-03T13:13:24;88591.28;;;4.02;56.47
8047;BME280;67150;42.516;23.358;2023-02-03T13:16:14;88584.53;;;4.04;56.68
8047;BME280;67150;42.516;23.358;2023-02-03T13:19:07;88594.34;;;4.07;56.80
8047;BME280;67150;42.516;23.358;2023-02-03T13:21:56;88587.03;;;4.04;56.58
8047;BME280;67150;42.516;23.358;2023-02-03T13:24:44;88585.19;;;4.08;56.57
8047;BME280;67150;42.516;23.358;2023-02-03T13:27:41;88599.41;;;4.06;56.63
8047;BME280;67150;42.516;23.358;2023-02-03T13:34:08;88606.59;;;4.12;55.95
8047;BME280;67150;42.516;23.358;2023-02-03T13:37:15;88607.78;;;4.05;55.93
8047;BME280;67150;42.516;23.358;2023-02-03T13:40:27;88595.22;;;4.06;55.78
8047;BME280;67150;42.516;23.358;2023-02-03T13:43:19;88602.56;;;4.09;55.59
8047;BME280;67150;42.516;23.358;2023-02-03T13:46:19;88606.06;;;4.05;55.18
8047;BME280;67150;42.516;23.358;2023-02-03T13:49:08;88606.88;;;4.06;55.41
8047;BME280;67150;42.516;23.358;2023-02-03T13:51:54;88589.72;;;4.00;55.67
8047;BME280;67150;42.516;23.358;2023-02-03T13:54:42;88596.56;;;3.96;55.53
8047;BME280;67150;42.516;23.358;2023-02-03T13:57:32;88598.22;;;3.95;55.43
8047;BME280;67150;42.516;23.358;2023-02-03T14:03:54;88609.75;;;3.98;55.68
8047;BME280;67150;42.516;23.358;2023-02-03T14:06:56;88598.38;;;3.92;55.71
8047;BME280;67150;42.516;23.358;2023-02-03T14:09:46;88608.69;;;3.85;55.97
8047;BME280;67150;42.516;23.358;2023-02-03T14:12:34;88610.44;;;3.83;55.48
8047;BME280;67150;42.516;23.358;2023-02-03T14:15:31;88609.59;;;3.84;55.61
8047;BME280;67150;42.516;23.358;2023-02-03T14:18:31;88603.94;;;3.80;55.80
8047;BME280;67150;42.516;23.358;2023-02-03T14:21:20;88614.22;;;3.73;56.21
8047;BME280;67150;42.516;23.358;2023-02-03T14:24:08;88608.75;;;3.66;56.02
8047;BME280;67150;42.516;23.358;2023-02-03T14:26:56;88609.31;;;3.71;55.72
8047;BME280;67150;42.516;23.358;2023-02-03T14:29:44;88620.28;;;3.67;55.88
8047;BME280;67150;42.516;23.358;2023-02-03T14:32:47;88607.84;;;3.67;55.89
8047;BME280;67150;42.516;23.358;2023-02-03T14:35:35;88601.59;;;3.59;56.27
8047;BME280;67150;42.516;23.358;2023-02-03T14:38:30;88608.63;;;3.51;56.09
8047;BME280;67150;42.516;23.358;2023-02-03T14:41:17;88599.19;;;3.57;55.19
8047;BME280;67150;42.516;23.358;2023-02-03T14:44:20;88572.41;;;3.44;55.31
8047;BME280;67150;42.516;23.358;2023-02-03T14:47:20;88591.41;;;3.46;55.83
8047;BME280;67150;42.516;23.358;2023-02-03T14:53:37;88612.88;;;3.49;55.31
8047;BME280;67150;42.516;23.358;2023-02-03T14:56:35;88596.53;;;3.43;55.74
8047;BME280;67150;42.516;23.358;2023-02-03T14:59:40;88601.56;;;3.42;55.47
8047;BME280;67150;42.516;23.358;2023-02-03T15:02:29;88600.75;;;3.41;55.65
8047;BME280;67150;42.516;23.358;2023-02-03T15:05:40;88591.72;;;3.38;55.88
8047;BME280;67150;42.516;23.358;2023-02-03T15:08:39;88577.00;;;3.34;56.21
8047;BME280;67150;42.516;23.358;2023-02-03T15:11:29;88575.66;;;3.27;55.61
8047;BME280;67150;42.516;23.358;2023-02-03T15:14:23;88564.88;;;3.26;55.98
8047;BME280;67150;42.516;23.358;2023-02-03T15:17:11;88547.22;;;3.14;55.55
8047;BME280;67150;42.516;23.358;2023-02-03T15:19:58;88565.97;;;3.21;56.05
8047;BME280;67150;42.516;23.358;2023-02-03T15:22:44;88558.59;;;3.19;55.83
8047;BME280;67150;42.516;23.358;2023-02-03T15:25:31;88557.91;;;3.16;55.86
8047;BME280;67150;42.516;23.358;2023-02-03T15:28:19;88560.47;;;3.14;56.35
8047;BME280;67150;42.516;23.358;2023-02-03T15:31:08;88566.38;;;3.12;56.49
8047;BME280;67150;42.516;23.358;2023-02-03T15:34:05;88548.09;;;3.13;56.33